createdAt,value
2022-10-10T00:00:30.082Z,14.43
2022-10-10T00:01:34.846Z,14.44
2022-10-10T00:02:36.504Z,14.42
2022-10-10T00:03:37.979Z,14.41
2022-10-10T00:04:39.582Z,14.40
2022-10-10T00:05:41.076Z,14.39
2022-10-10T00:06:42.631Z,14.36
2022-10-10T00:07:45.445Z,14.35
2022-10-10T00:08:46.930Z,14.34
2022-10-10T00:09:48.398Z,14.32
2022-10-10T00:10:49.902Z,14.32
2022-10-10T00:11:51.366Z,14.31
2022-10-10T00:12:53.093Z,14.31
2022-10-10T00:13:54.911Z,14.30
2022-10-10T00:14:56.384Z,14.26
2022-10-10T00:15:57.852Z,14.25
2022-10-10T00:16:59.330Z,14.25
2022-10-10T00:18:00.829Z,14.24
2022-10-10T00:19:02.324Z,14.24
2022-10-10T00:20:03.911Z,14.23
2022-10-10T00:21:05.666Z,14.22
2022-10-10T00:22:07.200Z,14.21
2022-10-10T00:23:08.670Z,14.20
2022-10-10T00:24:10.583Z,14.21
2022-10-10T00:25:12.043Z,14.19
2022-10-10T00:26:18.538Z,14.18
2022-10-10T00:27:20.815Z,14.18
2022-10-10T00:28:22.375Z,14.19
2022-10-10T00:29:23.957Z,14.18
2022-10-10T00:30:30.732Z,14.18
2022-10-10T00:31:32.222Z,14.17
2022-10-10T00:32:33.900Z,14.18
2022-10-10T00:33:35.614Z,14.17
2022-10-10T00:34:37.491Z,14.17
2022-10-10T00:35:39.523Z,14.17
2022-10-10T00:36:40.991Z,14.17
2022-10-10T00:37:42.445Z,14.17
2022-10-10T00:38:43.957Z,14.16
2022-10-10T00:39:45.450Z,14.16
2022-10-10T00:40:47.766Z,14.16
2022-10-10T00:41:49.295Z,14.14
2022-10-10T00:42:50.937Z,14.13
2022-10-10T00:44:05.684Z,14.12
2022-10-10T00:45:18.986Z,14.07
2022-10-10T00:46:20.443Z,14.05
2022-10-10T00:47:21.939Z,14.04
2022-10-10T00:48:27.544Z,14.04
2022-10-10T00:49:29.173Z,14.03
2022-10-10T00:50:30.691Z,14.03
2022-10-10T00:51:32.243Z,14.03
2022-10-10T00:52:33.861Z,14.03
2022-10-10T00:53:42.982Z,14.03
2022-10-10T00:54:44.498Z,14.03
2022-10-10T00:55:46.025Z,14.01
2022-10-10T00:56:48.386Z,14.02
2022-10-10T00:57:50.043Z,14.02
2022-10-10T00:58:52.347Z,14.02
2022-10-10T00:59:53.804Z,14.01
2022-10-10T01:00:55.314Z,14.01
2022-10-10T01:01:56.826Z,14.00
2022-10-10T01:02:58.250Z,14.01
2022-10-10T01:04:00.183Z,14.00
2022-10-10T01:05:01.688Z,14.01
2022-10-10T01:06:03.238Z,13.99
2022-10-10T01:07:05.751Z,13.99
2022-10-10T01:08:07.316Z,13.98
2022-10-10T01:09:08.793Z,13.97
2022-10-10T01:10:11.793Z,13.96
2022-10-10T01:11:13.286Z,13.95
2022-10-10T01:12:14.706Z,13.93
2022-10-10T01:13:18.975Z,13.92
2022-10-10T01:14:40.713Z,13.91
2022-10-10T01:16:01.515Z,13.89
2022-10-10T01:17:23.274Z,13.88
2022-10-10T01:18:24.727Z,13.86
2022-10-10T01:19:37.245Z,13.86
2022-10-10T01:20:41.314Z,13.81
2022-10-10T01:21:46.045Z,13.81
2022-10-10T01:22:53.328Z,13.80
2022-10-10T01:24:04.256Z,13.78
2022-10-10T01:25:24.463Z,13.76
2022-10-10T01:26:44.741Z,13.73
2022-10-10T01:27:46.788Z,13.73
2022-10-10T01:28:51.948Z,13.72
2022-10-10T01:29:56.771Z,13.70
2022-10-10T01:30:58.275Z,13.69
2022-10-10T01:32:18.156Z,13.68
2022-10-10T01:33:21.900Z,13.68
2022-10-10T01:34:36.620Z,13.67
2022-10-10T01:35:53.933Z,13.64
2022-10-10T01:37:16.592Z,13.64
2022-10-10T01:38:36.587Z,13.61
2022-10-10T01:39:53.167Z,13.61
2022-10-10T01:41:03.714Z,13.61
2022-10-10T01:42:07.442Z,13.60
2022-10-10T01:43:08.976Z,13.61
2022-10-10T01:44:10.515Z,13.60
2022-10-10T01:45:12.049Z,13.59
2022-10-10T01:46:14.409Z,13.59
2022-10-10T01:47:15.898Z,13.58
2022-10-10T01:48:18.114Z,13.56
2022-10-10T01:49:27.836Z,13.53
2022-10-10T01:50:29.528Z,13.52
2022-10-10T01:51:38.015Z,13.50
2022-10-10T01:52:45.703Z,13.45
2022-10-10T01:53:54.447Z,13.44
2022-10-10T01:55:07.852Z,13.43
2022-10-10T01:56:14.503Z,13.42
2022-10-10T01:57:20.705Z,13.42
2022-10-10T01:58:22.135Z,13.41
2022-10-10T01:59:26.463Z,13.41
2022-10-10T02:00:28.374Z,13.42
2022-10-10T02:01:51.671Z,13.42
2022-10-10T02:02:55.911Z,13.41
2022-10-10T02:04:00.936Z,13.41
2022-10-10T02:05:10.760Z,13.42
2022-10-10T02:06:15.379Z,13.42
2022-10-10T02:07:35.695Z,13.42
2022-10-10T02:08:41.271Z,13.43
2022-10-10T02:09:42.824Z,13.43
2022-10-10T02:10:48.907Z,13.43
2022-10-10T02:11:50.346Z,13.43
2022-10-10T02:12:52.167Z,13.42
2022-10-10T02:13:57.876Z,13.42
2022-10-10T02:15:01.696Z,13.42
2022-10-10T02:16:03.224Z,13.42
2022-10-10T02:17:04.661Z,13.44
2022-10-10T02:18:06.350Z,13.43
2022-10-10T02:19:08.551Z,13.44
2022-10-10T02:20:10.877Z,13.45
2022-10-10T02:21:12.355Z,13.44
2022-10-10T02:22:13.838Z,13.44
2022-10-10T02:23:16.226Z,13.44
2022-10-10T02:24:18.040Z,13.43
2022-10-10T02:25:22.017Z,13.43
2022-10-10T02:26:23.746Z,13.41
2022-10-10T02:27:27.834Z,13.41
2022-10-10T02:28:29.293Z,13.41
2022-10-10T02:29:31.849Z,13.41
2022-10-10T02:30:37.006Z,13.42
2022-10-10T02:31:47.029Z,13.41
2022-10-10T02:32:49.839Z,13.42
2022-10-10T02:33:53.251Z,13.41
2022-10-10T02:34:55.589Z,13.41
2022-10-10T02:35:57.087Z,13.42
2022-10-10T02:36:59.782Z,13.40
2022-10-10T02:38:01.348Z,13.40
2022-10-10T02:39:03.011Z,13.40
2022-10-10T02:40:05.058Z,13.39
2022-10-10T02:41:06.585Z,13.37
2022-10-10T02:42:08.119Z,13.35
2022-10-10T02:43:09.616Z,13.34
2022-10-10T02:44:11.677Z,13.36
2022-10-10T02:45:13.180Z,13.35
2022-10-10T02:46:14.682Z,13.34
2022-10-10T02:47:16.649Z,13.34
2022-10-10T02:48:18.609Z,13.32
2022-10-10T02:49:23.352Z,13.33
2022-10-10T02:50:24.828Z,13.32
2022-10-10T02:51:30.179Z,13.30
2022-10-10T02:52:32.235Z,13.29
2022-10-10T02:53:34.159Z,13.29
2022-10-10T02:54:35.623Z,13.29
2022-10-10T02:55:37.071Z,13.28
2022-10-10T02:56:38.579Z,13.27
2022-10-10T02:57:40.077Z,13.27
2022-10-10T02:58:41.591Z,13.27
2022-10-10T02:59:43.047Z,13.25
2022-10-10T03:00:44.553Z,13.25
2022-10-10T03:01:46.148Z,13.24
2022-10-10T03:02:47.763Z,13.24
2022-10-10T03:03:49.313Z,13.22
2022-10-10T03:04:50.766Z,13.22
2022-10-10T03:05:52.298Z,13.21
2022-10-10T03:06:53.827Z,13.20
2022-10-10T03:07:55.466Z,13.19
2022-10-10T03:08:56.902Z,13.17
2022-10-10T03:09:58.388Z,13.15
2022-10-10T03:11:00.559Z,13.14
2022-10-10T03:12:02.087Z,13.13
2022-10-10T03:13:03.598Z,13.12
2022-10-10T03:14:05.043Z,13.12
2022-10-10T03:15:11.253Z,13.11
2022-10-10T03:16:13.246Z,13.11
2022-10-10T03:17:14.725Z,13.10
2022-10-10T03:18:16.265Z,13.10
2022-10-10T03:19:17.727Z,13.09
2022-10-10T03:20:19.189Z,13.10
2022-10-10T03:21:20.664Z,13.08
2022-10-10T03:22:22.127Z,13.07
2022-10-10T03:23:24.692Z,13.06
2022-10-10T03:24:26.572Z,13.05
2022-10-10T03:25:28.486Z,13.03
2022-10-10T03:26:29.936Z,13.03
2022-10-10T03:27:31.460Z,13.02
2022-10-10T03:28:33.013Z,12.99
2022-10-10T03:29:34.516Z,12.99
2022-10-10T03:30:36.215Z,12.96
2022-10-10T03:31:37.731Z,12.95
2022-10-10T03:32:39.222Z,12.95
2022-10-10T03:33:40.676Z,12.94
2022-10-10T03:34:42.183Z,12.94
2022-10-10T03:35:43.684Z,12.94
2022-10-10T03:36:45.128Z,12.95
2022-10-10T03:37:46.603Z,12.93
2022-10-10T03:38:48.048Z,12.93
2022-10-10T03:39:49.570Z,12.93
2022-10-10T03:40:51.003Z,12.93
2022-10-10T03:41:52.468Z,12.94
2022-10-10T03:42:54.187Z,12.94
2022-10-10T03:43:56.132Z,12.93
2022-10-10T03:44:57.614Z,12.93
2022-10-10T03:45:59.104Z,12.92
2022-10-10T03:47:00.566Z,12.92
2022-10-10T03:48:02.125Z,12.92
2022-10-10T03:49:03.618Z,12.93
2022-10-10T03:50:05.444Z,12.92
2022-10-10T03:51:06.964Z,12.92
2022-10-10T03:52:08.461Z,12.93
2022-10-10T03:53:09.986Z,12.93
2022-10-10T03:54:11.434Z,12.92
2022-10-10T03:55:13.113Z,12.93
2022-10-10T03:56:14.591Z,12.92
2022-10-10T03:57:16.079Z,12.93
2022-10-10T03:58:22.845Z,12.92
2022-10-10T03:59:25.207Z,12.91
2022-10-10T04:00:26.684Z,12.92
2022-10-10T04:01:28.326Z,12.91
2022-10-10T04:02:29.927Z,12.90
2022-10-10T04:03:31.398Z,12.91
2022-10-10T04:04:32.903Z,12.89
2022-10-10T04:05:34.942Z,12.89
2022-10-10T04:06:36.554Z,12.88
2022-10-10T04:07:38.283Z,12.88
2022-10-10T04:08:39.885Z,12.87
2022-10-10T04:09:41.394Z,12.87
2022-10-10T04:10:42.868Z,12.85
2022-10-10T04:11:44.334Z,12.84
2022-10-10T04:12:45.819Z,12.84
2022-10-10T04:13:47.323Z,12.82
2022-10-10T04:14:48.794Z,12.82
2022-10-10T04:15:51.121Z,12.82
2022-10-10T04:16:52.582Z,12.81
2022-10-10T04:17:54.106Z,12.81
2022-10-10T04:18:55.604Z,12.79
2022-10-10T04:19:57.067Z,12.79
2022-10-10T04:21:01.322Z,12.79
2022-10-10T04:22:02.836Z,12.77
2022-10-10T04:23:04.289Z,12.76
2022-10-10T04:24:05.823Z,12.75
2022-10-10T04:25:07.431Z,12.72
2022-10-10T04:26:09.011Z,12.72
2022-10-10T04:27:10.972Z,12.71
2022-10-10T04:28:12.964Z,12.71
2022-10-10T04:29:14.471Z,12.70
2022-10-10T04:30:15.943Z,12.70
2022-10-10T04:31:17.442Z,12.60
2022-10-10T04:32:18.944Z,12.70
2022-10-10T04:33:20.378Z,12.69
2022-10-10T04:34:21.903Z,12.70
2022-10-10T04:35:23.375Z,12.69
2022-10-10T04:36:24.835Z,12.70
2022-10-10T04:37:26.273Z,12.70
2022-10-10T04:38:28.318Z,12.69
2022-10-10T04:39:29.960Z,12.69
2022-10-10T04:40:31.459Z,12.68
2022-10-10T04:41:32.943Z,12.68
2022-10-10T04:42:34.382Z,12.66
2022-10-10T04:43:35.894Z,12.68
2022-10-10T04:44:37.594Z,12.66
2022-10-10T04:45:39.047Z,12.65
2022-10-10T04:46:40.500Z,12.67
2022-10-10T04:47:42.068Z,12.67
2022-10-10T04:48:43.513Z,12.67
2022-10-10T04:49:44.993Z,12.66
2022-10-10T04:50:50.990Z,12.61
2022-10-10T04:51:52.462Z,12.59
2022-10-10T04:52:54.112Z,12.59
2022-10-10T04:53:55.659Z,12.60
2022-10-10T04:54:57.130Z,12.62
2022-10-10T04:55:58.597Z,12.62
2022-10-10T04:57:00.066Z,12.62
2022-10-10T04:58:01.507Z,12.62
2022-10-10T04:59:03.027Z,12.64
2022-10-10T05:00:04.971Z,12.66
2022-10-10T05:01:06.874Z,12.66
2022-10-10T05:02:08.325Z,12.66
2022-10-10T05:03:11.585Z,12.67
2022-10-10T05:04:14.522Z,12.68
2022-10-10T05:05:16.046Z,12.68
2022-10-10T05:06:17.502Z,12.67
2022-10-10T05:07:18.979Z,12.65
2022-10-10T05:08:20.438Z,12.65
2022-10-10T05:09:21.902Z,12.59
2022-10-10T05:10:23.890Z,12.60
2022-10-10T05:11:25.345Z,12.60
2022-10-10T05:12:26.817Z,12.61
2022-10-10T05:13:28.309Z,12.63
2022-10-10T05:14:29.800Z,12.64
2022-10-10T05:15:31.886Z,12.63
2022-10-10T05:16:33.354Z,12.64
2022-10-10T05:17:34.944Z,12.65
2022-10-10T05:18:39.501Z,12.64
2022-10-10T05:19:41.028Z,12.65
2022-10-10T05:20:43.993Z,12.65
2022-10-10T05:21:45.464Z,12.65
2022-10-10T05:22:47.024Z,12.65
2022-10-10T05:23:48.474Z,12.66
2022-10-10T05:24:50.023Z,12.64
2022-10-10T05:25:51.649Z,12.65
2022-10-10T05:26:53.111Z,12.64
2022-10-10T05:27:54.659Z,12.63
2022-10-10T05:28:56.142Z,12.63
2022-10-10T05:29:57.634Z,12.62
2022-10-10T05:30:59.103Z,12.60
2022-10-10T05:32:00.581Z,12.59
2022-10-10T05:33:02.031Z,12.59
2022-10-10T05:34:03.510Z,12.59
2022-10-10T05:35:05.286Z,12.59
2022-10-10T05:36:10.726Z,12.55
2022-10-10T05:37:12.374Z,12.60
2022-10-10T05:38:13.831Z,12.60
2022-10-10T05:39:15.296Z,12.59
2022-10-10T05:40:16.766Z,12.59
2022-10-10T05:41:18.365Z,12.60
2022-10-10T05:42:19.862Z,12.59
2022-10-10T05:43:21.310Z,12.60
2022-10-10T05:44:22.748Z,12.60
2022-10-10T05:45:24.239Z,12.61
2022-10-10T05:46:27.473Z,12.60
2022-10-10T05:47:28.962Z,12.62
2022-10-10T05:48:30.470Z,12.62
2022-10-10T05:49:31.921Z,12.62
2022-10-10T05:50:34.431Z,12.61
2022-10-10T05:51:36.330Z,12.51
2022-10-10T05:52:37.779Z,12.61
2022-10-10T05:53:39.331Z,12.60
2022-10-10T05:54:40.804Z,12.60
2022-10-10T05:55:43.368Z,12.61
2022-10-10T05:56:44.875Z,12.61
2022-10-10T05:57:46.410Z,12.62
2022-10-10T05:58:47.895Z,12.62
2022-10-10T05:59:49.373Z,12.63
2022-10-10T06:00:50.881Z,12.62
2022-10-10T06:01:52.581Z,12.62
2022-10-10T06:02:54.700Z,12.63
2022-10-10T06:03:56.453Z,12.62
2022-10-10T06:04:57.912Z,12.64
2022-10-10T06:05:59.356Z,12.64
2022-10-10T06:07:00.831Z,12.65
2022-10-10T06:08:10.624Z,12.66
2022-10-10T06:09:13.253Z,12.68
2022-10-10T06:10:15.012Z,12.70
2022-10-10T06:11:17.488Z,12.71
2022-10-10T06:12:19.007Z,12.72
2022-10-10T06:13:24.233Z,12.74
2022-10-10T06:14:26.118Z,12.74
2022-10-10T06:15:27.576Z,12.74
2022-10-10T06:16:29.070Z,12.75
2022-10-10T06:17:30.529Z,12.76
2022-10-10T06:18:31.992Z,12.78
2022-10-10T06:19:33.472Z,12.78
2022-10-10T06:20:35.631Z,12.77
2022-10-10T06:21:37.115Z,12.76
2022-10-10T06:22:38.568Z,12.75
2022-10-10T06:23:40.074Z,12.75
2022-10-10T06:24:41.628Z,12.76
2022-10-10T06:25:43.072Z,12.76
2022-10-10T06:26:44.562Z,12.77
2022-10-10T06:27:46.021Z,12.78
2022-10-10T06:28:47.606Z,12.79
2022-10-10T06:29:49.121Z,12.79
2022-10-10T06:30:50.748Z,12.74
2022-10-10T06:31:52.192Z,12.81
2022-10-10T06:32:56.780Z,12.82
2022-10-10T06:33:58.624Z,12.84
2022-10-10T06:35:00.159Z,12.84
2022-10-10T06:36:03.643Z,12.84
2022-10-10T06:37:05.284Z,12.86
2022-10-10T06:38:06.741Z,12.86
2022-10-10T06:39:08.202Z,12.89
2022-10-10T06:40:09.918Z,12.90
2022-10-10T06:41:11.380Z,12.92
2022-10-10T06:42:12.862Z,12.93
2022-10-10T06:43:14.614Z,12.94
2022-10-10T06:44:18.812Z,12.95
2022-10-10T06:45:20.339Z,12.97
2022-10-10T06:46:21.868Z,13.00
2022-10-10T06:47:23.383Z,13.00
2022-10-10T06:48:25.002Z,13.01
2022-10-10T06:49:26.508Z,13.03
2022-10-10T06:50:27.963Z,13.04
2022-10-10T06:51:29.424Z,13.06
2022-10-10T06:52:30.884Z,13.07
2022-10-10T06:53:32.435Z,13.09
2022-10-10T06:54:33.883Z,13.10
2022-10-10T06:55:35.694Z,13.10
2022-10-10T06:56:37.136Z,13.12
2022-10-10T06:57:38.615Z,13.13
2022-10-10T06:58:40.043Z,13.16
2022-10-10T06:59:41.504Z,13.17
2022-10-10T07:00:48.163Z,13.19
2022-10-10T07:01:49.962Z,13.18
2022-10-10T07:02:52.607Z,13.19
2022-10-10T07:03:54.270Z,13.22
2022-10-10T07:04:55.845Z,13.20
2022-10-10T07:05:58.229Z,13.20
2022-10-10T07:06:59.703Z,13.21
2022-10-10T07:08:01.187Z,13.22
2022-10-10T07:09:02.709Z,13.20
2022-10-10T07:10:04.659Z,13.21
2022-10-10T07:11:07.221Z,13.23
2022-10-10T07:12:09.103Z,13.24
2022-10-10T07:13:10.943Z,13.27
2022-10-10T07:14:12.716Z,13.28
2022-10-10T07:15:14.481Z,13.30
2022-10-10T07:16:15.959Z,13.31
2022-10-10T07:17:17.464Z,13.31
2022-10-10T07:18:18.975Z,13.33
2022-10-10T07:19:21.611Z,13.34
2022-10-10T07:20:23.115Z,13.34
2022-10-10T07:21:24.586Z,13.34
2022-10-10T07:22:26.252Z,13.36
2022-10-10T07:23:28.035Z,13.39
2022-10-10T07:24:29.475Z,13.41
2022-10-10T07:25:30.983Z,13.43
2022-10-10T07:26:37.086Z,13.44
2022-10-10T07:27:38.567Z,13.46
2022-10-10T07:28:40.138Z,13.48
2022-10-10T07:29:41.939Z,13.48
2022-10-10T07:30:44.041Z,13.51
2022-10-10T07:31:45.519Z,13.51
2022-10-10T07:32:46.988Z,13.52
2022-10-10T07:33:50.527Z,13.54
2022-10-10T07:34:53.575Z,13.56
2022-10-10T07:35:55.062Z,13.60
2022-10-10T07:36:56.535Z,13.61
2022-10-10T07:37:57.975Z,13.62
2022-10-10T07:38:59.438Z,13.67
2022-10-10T07:40:01.292Z,13.66
2022-10-10T07:41:06.637Z,13.70
2022-10-10T07:42:08.116Z,13.72
2022-10-10T07:43:09.713Z,13.75
2022-10-10T07:44:11.157Z,13.78
2022-10-10T07:45:12.664Z,13.80
2022-10-10T07:46:17.542Z,13.83
2022-10-10T07:47:19.055Z,13.86
2022-10-10T07:48:20.479Z,13.88
2022-10-10T07:49:21.913Z,13.87
2022-10-10T07:50:25.969Z,13.88
2022-10-10T07:51:27.460Z,13.91
2022-10-10T07:52:28.967Z,13.95
2022-10-10T07:53:30.717Z,14.00
2022-10-10T07:54:32.283Z,14.03
2022-10-10T07:55:33.921Z,14.04
2022-10-10T07:56:35.452Z,14.06
2022-10-10T07:57:36.987Z,14.09
2022-10-10T07:58:38.454Z,14.11
2022-10-10T07:59:40.759Z,14.14
2022-10-10T08:00:42.348Z,14.17
2022-10-10T08:01:43.862Z,14.19
2022-10-10T08:02:45.461Z,14.21
2022-10-10T08:03:47.085Z,14.24
2022-10-10T08:04:48.589Z,14.26
2022-10-10T08:05:50.128Z,14.29
2022-10-10T08:06:51.610Z,14.31
2022-10-10T08:07:53.548Z,14.30
2022-10-10T08:08:55.301Z,14.33
2022-10-10T08:09:56.815Z,14.37
2022-10-10T08:10:58.465Z,14.39
2022-10-10T08:11:59.939Z,14.43
2022-10-10T08:13:01.383Z,14.46
2022-10-10T08:14:03.299Z,14.48
2022-10-10T08:15:05.604Z,14.51
2022-10-10T08:16:07.101Z,14.53
2022-10-10T08:17:08.543Z,14.56
2022-10-10T08:18:10.035Z,14.60
2022-10-10T08:19:11.530Z,14.63
2022-10-10T08:20:13.036Z,14.65
2022-10-10T08:21:14.735Z,14.68
2022-10-10T08:22:16.200Z,14.69
2022-10-10T08:23:20.548Z,14.72
2022-10-10T08:24:24.733Z,14.67
2022-10-10T08:25:26.352Z,14.68
2022-10-10T08:26:27.839Z,14.71
2022-10-10T08:27:29.352Z,14.71
2022-10-10T08:28:31.192Z,14.75
2022-10-10T08:29:33.302Z,14.78
2022-10-10T08:30:34.777Z,14.80
2022-10-10T08:31:36.290Z,14.80
2022-10-10T08:32:37.786Z,14.83
2022-10-10T08:33:39.676Z,14.85
2022-10-10T08:34:41.127Z,14.86
2022-10-10T08:35:42.640Z,14.88
2022-10-10T08:36:44.125Z,14.89
2022-10-10T08:37:45.637Z,14.90
2022-10-10T08:38:47.707Z,14.91
2022-10-10T08:39:49.849Z,14.94
2022-10-10T08:40:51.549Z,14.95
2022-10-10T08:41:55.258Z,14.97
2022-10-10T08:42:56.986Z,14.97
2022-10-10T08:44:00.963Z,15.00
2022-10-10T08:45:03.714Z,15.02
2022-10-10T08:46:08.691Z,15.04
2022-10-10T08:47:10.092Z,15.02
2022-10-10T08:48:12.480Z,15.04
2022-10-10T08:49:18.684Z,15.07
2022-10-10T08:50:21.813Z,15.05
2022-10-10T08:51:30.631Z,15.05
2022-10-10T08:52:32.702Z,15.07
2022-10-10T08:53:46.906Z,15.07
2022-10-10T08:54:48.707Z,15.03
2022-10-10T08:55:50.156Z,15.06
2022-10-10T08:56:51.715Z,15.04
2022-10-10T08:58:11.882Z,15.09
2022-10-10T08:59:23.551Z,15.14
2022-10-10T09:00:26.350Z,15.09
2022-10-10T09:01:29.066Z,15.02
2022-10-10T09:02:54.873Z,14.97
2022-10-10T09:04:00.662Z,14.97
2022-10-10T09:05:02.109Z,15.05
2022-10-10T09:06:06.371Z,15.13
2022-10-10T09:07:10.696Z,15.19
2022-10-10T09:08:15.693Z,15.25
2022-10-10T09:09:23.125Z,15.30
2022-10-10T09:10:33.849Z,15.39
2022-10-10T09:11:41.550Z,15.48
2022-10-10T09:13:02.094Z,15.56
2022-10-10T09:14:15.494Z,15.65
2022-10-10T09:15:46.344Z,15.70
2022-10-10T09:16:50.485Z,15.78
2022-10-10T09:17:55.615Z,15.82
2022-10-10T09:19:00.611Z,15.82
2022-10-10T09:20:18.040Z,15.83
2022-10-10T09:21:26.492Z,15.84
2022-10-10T09:22:29.854Z,15.88
2022-10-10T09:23:33.107Z,15.97
2022-10-10T09:24:41.196Z,16.03
2022-10-10T09:26:11.414Z,16.11
2022-10-10T09:27:15.116Z,16.21
2022-10-10T09:28:18.668Z,16.23
2022-10-10T09:29:39.563Z,16.34
2022-10-10T09:30:43.224Z,16.44
2022-10-10T09:31:46.625Z,16.55
2022-10-10T09:32:53.389Z,16.67
2022-10-10T09:34:10.948Z,16.81
2022-10-10T09:35:18.105Z,16.98
2022-10-10T09:36:21.201Z,17.11
2022-10-10T09:37:53.704Z,17.16
2022-10-10T09:39:00.337Z,17.42
2022-10-10T09:40:04.747Z,17.43
2022-10-10T09:41:09.607Z,17.58
2022-10-10T09:42:12.725Z,17.69
2022-10-10T09:43:17.476Z,17.79
2022-10-10T09:44:20.031Z,18.02
2022-10-10T09:45:27.299Z,18.22
2022-10-10T09:46:29.270Z,18.52
2022-10-10T09:47:31.276Z,18.77
2022-10-10T09:48:39.797Z,18.94
2022-10-10T09:49:42.061Z,19.17
2022-10-10T09:50:44.760Z,19.40
2022-10-10T09:51:47.128Z,19.68
2022-10-10T09:52:49.366Z,19.91
2022-10-10T09:53:51.197Z,20.17
2022-10-10T09:54:56.013Z,20.39
2022-10-10T09:55:58.001Z,20.50
2022-10-10T09:56:59.738Z,20.57
2022-10-10T09:58:03.819Z,20.74
2022-10-10T09:59:06.083Z,20.89
2022-10-10T10:00:25.631Z,21.00
2022-10-10T10:01:29.110Z,21.19
2022-10-10T10:02:31.492Z,21.25
2022-10-10T10:03:33.194Z,21.40
2022-10-10T10:04:34.671Z,21.62
2022-10-10T10:05:36.109Z,21.86
2022-10-10T10:06:37.616Z,22.06
2022-10-10T10:07:46.910Z,22.22
2022-10-10T10:08:49.985Z,22.22
2022-10-10T10:10:01.307Z,22.37
2022-10-10T10:11:03.163Z,22.51
2022-10-10T10:12:05.322Z,22.59
2022-10-10T10:13:12.281Z,22.69
2022-10-10T10:14:18.965Z,22.89
2022-10-10T10:15:23.119Z,23.01
2022-10-10T10:16:40.142Z,22.99
2022-10-10T10:17:41.636Z,23.20
2022-10-10T10:18:43.777Z,23.41
2022-10-10T10:19:45.786Z,23.61
2022-10-10T10:20:48.542Z,23.76
2022-10-10T10:21:50.470Z,23.89
2022-10-10T10:23:57.826Z,23.99
2022-10-10T10:24:59.935Z,24.13
2022-10-10T10:26:02.411Z,24.25
2022-10-10T10:27:14.715Z,24.32
2022-10-10T10:28:16.728Z,24.49
2022-10-10T10:29:24.376Z,24.63
2022-10-10T10:30:25.971Z,24.79
2022-10-10T10:31:31.043Z,24.93
2022-10-10T10:32:32.540Z,25.07
2022-10-10T10:33:34.151Z,25.16
2022-10-10T10:34:44.188Z,25.24
2022-10-10T10:35:51.912Z,25.30
2022-10-10T10:36:59.773Z,25.27
2022-10-10T10:38:05.386Z,25.21
2022-10-10T10:39:09.956Z,25.27
2022-10-10T10:40:25.767Z,25.40
2022-10-10T10:41:30.114Z,25.45
2022-10-10T10:42:43.835Z,25.49
2022-10-10T10:44:00.855Z,25.56
2022-10-10T10:45:11.148Z,25.38
2022-10-10T10:46:28.010Z,25.42
2022-10-10T10:49:01.489Z,25.80
2022-10-10T10:50:12.370Z,25.87
2022-10-10T10:51:22.925Z,25.83
2022-10-10T10:52:47.539Z,25.78
2022-10-10T10:54:03.742Z,25.70
2022-10-10T10:55:11.114Z,25.68
2022-10-10T10:56:18.662Z,25.79
2022-10-10T10:57:37.101Z,25.82
2022-10-10T10:59:30.309Z,25.85
2022-10-10T11:00:20.969Z,25.86
2022-10-10T11:01:56.600Z,25.74
2022-10-10T11:04:15.645Z,25.75
2022-10-10T11:05:19.452Z,25.79
2022-10-10T11:06:21.162Z,25.72
2022-10-10T11:07:23.276Z,25.59
2022-10-10T11:08:43.531Z,25.50
2022-10-10T11:09:49.974Z,25.33
2022-10-10T11:10:54.904Z,25.31
2022-10-10T11:12:03.596Z,25.32
2022-10-10T11:13:08.720Z,25.25
2022-10-10T11:14:18.205Z,25.07
2022-10-10T11:17:21.272Z,24.74
2022-10-10T11:18:22.768Z,24.57
2022-10-10T11:19:34.530Z,24.66
2022-10-10T11:20:49.716Z,24.76
2022-10-10T11:21:53.453Z,24.77
2022-10-10T11:23:06.547Z,24.74
2022-10-10T11:24:11.829Z,24.71
2022-10-10T11:25:23.807Z,24.72
2022-10-10T11:26:45.551Z,24.62
2022-10-10T11:27:48.236Z,24.61
2022-10-10T11:29:08.096Z,24.60
2022-10-10T11:30:14.377Z,24.55
2022-10-10T11:31:20.995Z,24.46
2022-10-10T11:32:28.207Z,24.36
2022-10-10T11:33:31.180Z,24.31
2022-10-10T11:34:34.098Z,24.30
2022-10-10T11:35:40.777Z,24.34
2022-10-10T11:36:42.639Z,24.28
2022-10-10T11:37:46.242Z,24.28
2022-10-10T11:38:57.787Z,24.34
2022-10-10T11:40:00.043Z,24.36
2022-10-10T11:41:19.903Z,24.44
2022-10-10T11:42:27.783Z,24.45
2022-10-10T11:43:35.040Z,24.44
2022-10-10T11:44:37.582Z,24.42
2022-10-10T11:45:52.323Z,24.41
2022-10-10T11:46:57.442Z,24.45
2022-10-10T11:48:02.160Z,24.51
2022-10-10T11:49:07.792Z,24.55
2022-10-10T11:50:13.473Z,24.43
2022-10-10T11:51:17.061Z,24.45
2022-10-10T11:52:33.987Z,24.44
2022-10-10T11:53:37.593Z,24.45
2022-10-10T11:54:41.645Z,24.50
2022-10-10T11:55:51.676Z,24.52
2022-10-10T11:56:53.830Z,24.55
2022-10-10T11:58:18.882Z,24.59
2022-10-10T11:59:41.324Z,24.59
2022-10-10T12:00:50.179Z,24.61
2022-10-10T12:01:55.901Z,24.58
2022-10-10T12:02:57.462Z,24.57
2022-10-10T12:03:59.008Z,24.56
2022-10-10T12:05:00.486Z,24.56
2022-10-10T12:06:07.713Z,24.57
2022-10-10T12:07:13.964Z,24.53
2022-10-10T12:08:35.290Z,24.53
2022-10-10T12:09:43.732Z,24.53
2022-10-10T12:10:52.880Z,24.52
2022-10-10T12:12:04.859Z,24.53
2022-10-10T12:13:16.315Z,24.53
2022-10-10T12:14:18.192Z,24.55
2022-10-10T12:15:28.688Z,24.59
2022-10-10T12:16:31.367Z,24.48
2022-10-10T12:17:33.311Z,24.43
2022-10-10T12:18:45.058Z,24.46
2022-10-10T12:19:47.479Z,24.47
2022-10-10T12:20:48.918Z,24.47
2022-10-10T12:21:53.924Z,24.50
2022-10-10T12:23:10.690Z,24.48
2022-10-10T12:24:12.868Z,24.46
2022-10-10T12:25:24.577Z,24.48
2022-10-10T12:26:26.565Z,24.46
2022-10-10T12:27:29.244Z,24.46
2022-10-10T12:28:37.900Z,24.46
2022-10-10T12:29:42.313Z,24.49
2022-10-10T12:30:58.528Z,24.49
2022-10-10T12:32:15.769Z,24.51
2022-10-10T12:33:26.204Z,24.54
2022-10-10T12:34:45.927Z,24.50
2022-10-10T12:35:47.529Z,24.53
2022-10-10T12:36:55.907Z,24.49
2022-10-10T12:38:12.469Z,24.52
2022-10-10T12:39:13.921Z,24.61
2022-10-10T12:40:21.075Z,24.62
2022-10-10T12:41:22.547Z,24.61
2022-10-10T12:42:29.218Z,24.62
2022-10-10T12:43:45.756Z,24.62
2022-10-10T12:44:47.286Z,24.65
2022-10-10T12:45:58.380Z,24.71
2022-10-10T12:47:14.861Z,24.81
2022-10-10T12:48:19.507Z,24.83
2022-10-10T12:49:21.455Z,24.74
2022-10-10T12:50:24.243Z,24.74
2022-10-10T12:51:25.767Z,24.72
2022-10-10T12:52:28.858Z,24.73
2022-10-10T12:53:31.479Z,24.75
2022-10-10T12:54:34.019Z,24.69
2022-10-10T12:55:47.524Z,24.68
2022-10-10T12:56:49.068Z,24.73
2022-10-10T12:57:51.069Z,24.79
2022-10-10T12:58:52.521Z,24.83
2022-10-10T12:59:55.829Z,24.87
2022-10-10T13:01:01.279Z,24.92
2022-10-10T13:02:04.759Z,24.91
2022-10-10T13:03:10.178Z,24.92
2022-10-10T13:04:14.672Z,24.89
2022-10-10T13:05:19.973Z,24.82
2022-10-10T13:06:21.487Z,24.80
2022-10-10T13:07:22.948Z,24.81
2022-10-10T13:08:24.943Z,24.79
2022-10-10T13:09:31.065Z,24.77
2022-10-10T13:10:35.985Z,24.68
2022-10-10T13:12:05.872Z,24.65
2022-10-10T13:13:16.075Z,24.68
2022-10-10T13:14:17.543Z,24.64
2022-10-10T13:15:21.959Z,24.62
2022-10-10T13:16:31.160Z,24.63
2022-10-10T13:17:38.082Z,24.65
2022-10-10T13:18:39.701Z,24.68
2022-10-10T13:19:41.232Z,24.69
2022-10-10T13:20:42.676Z,24.68
2022-10-10T13:21:44.222Z,24.63
2022-10-10T13:22:47.419Z,24.62
2022-10-10T13:25:12.201Z,24.67
2022-10-10T13:26:19.374Z,24.74
2022-10-10T13:27:27.460Z,24.78
2022-10-10T13:28:28.958Z,24.83
2022-10-10T13:29:31.307Z,24.86
2022-10-10T13:30:32.857Z,24.89
2022-10-10T13:31:34.387Z,24.90
2022-10-10T13:32:35.930Z,24.92
2022-10-10T13:33:37.391Z,24.97
2022-10-10T13:34:40.126Z,25.00
2022-10-10T13:35:41.590Z,25.02
2022-10-10T13:36:43.471Z,25.03
2022-10-10T13:37:46.183Z,25.04
2022-10-10T13:38:50.764Z,25.07
2022-10-10T13:39:52.425Z,25.09
2022-10-10T13:40:53.903Z,25.13
2022-10-10T13:41:55.491Z,25.15
2022-10-10T13:42:58.711Z,25.19
2022-10-10T13:44:00.300Z,25.24
2022-10-10T13:45:03.244Z,25.29
2022-10-10T13:46:04.777Z,25.33
2022-10-10T13:47:24.932Z,25.34
2022-10-10T13:48:35.733Z,25.29
2022-10-10T13:49:37.214Z,25.31
2022-10-10T13:50:44.723Z,25.35
2022-10-10T13:51:46.550Z,25.42
2022-10-10T13:52:48.033Z,25.46
2022-10-10T13:53:50.495Z,25.48